sensor_id;sensor_type;location;lat;lon;timestamp;temperature;humidity
27567;DHT22;15006;48.584;9.186;2024-01-10T00:01:36;-8.30;90.60
27567;DHT22;15006;48.584;9.186;2024-01-10T00:04:02;-8.30;90.60
27567;DHT22;15006;48.584;9.186;2024-01-10T00:06:28;-8.30;90.70
27567;DHT22;15006;48.584;9.186;2024-01-10T00:08:54;-8.20;90.80
27567;DHT22;15006;48.584;9.186;2024-01-10T00:11:20;-8.20;90.90
27567;DHT22;15006;48.584;9.186;2024-01-10T00:13:46;-8.20;90.90
27567;DHT22;15006;48.584;9.186;2024-01-10T00:16:12;-8.10;90.90
27567;DHT22;15006;48.584;9.186;2024-01-10T00:18:40;-8.10;90.90
27567;DHT22;15006;48.584;9.186;2024-01-10T00:21:10;-8.10;90.90
27567;DHT22;15006;48.584;9.186;2024-01-10T00:23:36;-8.00;90.90
27567;DHT22;15006;48.584;9.186;2024-01-10T00:26:03;-8.00;90.90
27567;DHT22;15006;48.584;9.186;2024-01-10T00:28:29;-8.00;91.00
27567;DHT22;15006;48.584;9.186;2024-01-10T00:30:55;-7.90;91.10
27567;DHT22;15006;48.584;9.186;2024-01-10T00:33:21;-7.90;91.20
27567;DHT22;15006;48.584;9.186;2024-01-10T00:35:47;-7.90;91.30
27567;DHT22;15006;48.584;9.186;2024-01-10T00:38:13;-7.90;91.20
27567;DHT22;15006;48.584;9.186;2024-01-10T00:40:39;-7.80;91.30
27567;DHT22;15006;48.584;9.186;2024-01-10T00:43:05;-7.80;91.30
27567;DHT22;15006;48.584;9.186;2024-01-10T00:45:31;-7.70;91.30
27567;DHT22;15006;48.584;9.186;2024-01-10T00:47:57;-7.70;91.30
27567;DHT22;15006;48.584;9.186;2024-01-10T00:50:23;-7.60;91.30
27567;DHT22;15006;48.584;9.186;2024-01-10T00:52:49;-7.60;91.30
27567;DHT22;15006;48.584;9.186;2024-01-10T00:55:15;-7.50;91.40
27567;DHT22;15006;48.584;9.186;2024-01-10T00:57:42;-7.50;91.40
27567;DHT22;15006;48.584;9.186;2024-01-10T01:00:09;-7.50;91.40
27567;DHT22;15006;48.584;9.186;2024-01-10T01:02:37;-7.40;91.50
27567;DHT22;15006;48.584;9.186;2024-01-10T01:05:05;-7.40;91.50
27567;DHT22;15006;48.584;9.186;2024-01-10T01:07:34;-7.40;91.30
27567;DHT22;15006;48.584;9.186;2024-01-10T01:10:01;-7.30;91.20
27567;DHT22;15006;48.584;9.186;2024-01-10T01:12:28;-7.30;91.30
27567;DHT22;15006;48.584;9.186;2024-01-10T01:14:54;-7.30;91.30
27567;DHT22;15006;48.584;9.186;2024-01-10T01:17:20;-7.20;91.30
27567;DHT22;15006;48.584;9.186;2024-01-10T01:19:46;-7.20;91.30
27567;DHT22;15006;48.584;9.186;2024-01-10T01:22:12;-7.20;91.30
27567;DHT22;15006;48.584;9.186;2024-01-10T01:24:38;-7.10;91.30
27567;DHT22;15006;48.584;9.186;2024-01-10T01:27:04;-7.10;91.20
27567;DHT22;15006;48.584;9.186;2024-01-10T01:29:30;-7.10;91.20
27567;DHT22;15006;48.584;9.186;2024-01-10T01:31:56;-7.00;91.10
27567;DHT22;15006;48.584;9.186;2024-01-10T01:34:22;-7.00;91.00
27567;DHT22;15006;48.584;9.186;2024-01-10T01:36:48;-7.00;91.00
27567;DHT22;15006;48.584;9.186;2024-01-10T01:39:17;-7.00;91.00
27567;DHT22;15006;48.584;9.186;2024-01-10T01:41:43;-7.00;91.00
27567;DHT22;15006;48.584;9.186;2024-01-10T01:44:09;-6.90;91.00
27567;DHT22;15006;48.584;9.186;2024-01-10T01:46:35;-6.90;91.00
27567;DHT22;15006;48.584;9.186;2024-01-10T01:49:01;-6.90;91.10
27567;DHT22;15006;48.584;9.186;2024-01-10T01:51:28;-6.90;91.10
27567;DHT22;15006;48.584;9.186;2024-01-10T01:53:55;-6.80;91.10
27567;DHT22;15006;48.584;9.186;2024-01-10T01:56:22;-6.80;91.10
27567;DHT22;15006;48.584;9.186;2024-01-10T01:58:50;-6.80;91.10
27567;DHT22;15006;48.584;9.186;2024-01-10T02:01:18;-6.80;91.10
27567;DHT22;15006;48.584;9.186;2024-01-10T02:03:48;-6.80;91.10
27567;DHT22;15006;48.584;9.186;2024-01-10T02:06:14;-6.70;91.10
27567;DHT22;15006;48.584;9.186;2024-01-10T02:08:40;-6.80;91.20
27567;DHT22;15006;48.584;9.186;2024-01-10T02:11:06;-6.70;91.20
27567;DHT22;15006;48.584;9.186;2024-01-10T02:13:32;-6.70;91.20
27567;DHT22;15006;48.584;9.186;2024-01-10T02:15:59;-6.70;91.30
27567;DHT22;15006;48.584;9.186;2024-01-10T02:18:25;-6.70;91.30
27567;DHT22;15006;48.584;9.186;2024-01-10T02:20:52;-6.70;91.30
27567;DHT22;15006;48.584;9.186;2024-01-10T02:23:18;-6.60;91.30
27567;DHT22;15006;48.584;9.186;2024-01-10T02:25:44;-6.60;91.30
27567;DHT22;15006;48.584;9.186;2024-01-10T02:28:10;-6.60;91.30
27567;DHT22;15006;48.584;9.186;2024-01-10T02:30:37;-6.60;91.40
27567;DHT22;15006;48.584;9.186;2024-01-10T02:33:03;-6.60;91.40
27567;DHT22;15006;48.584;9.186;2024-01-10T02:35:29;-6.50;91.50
27567;DHT22;15006;48.584;9.186;2024-01-10T02:37:59;-6.50;91.90
27567;DHT22;15006;48.584;9.186;2024-01-10T02:40:25;-6.50;91.60
27567;DHT22;15006;48.584;9.186;2024-01-10T02:42:51;-6.50;91.60
27567;DHT22;15006;48.584;9.186;2024-01-10T02:45:17;-6.40;91.60
27567;DHT22;15006;48.584;9.186;2024-01-10T02:47:44;-6.40;91.50
27567;DHT22;15006;48.584;9.186;2024-01-10T02:50:10;-6.40;91.40
27567;DHT22;15006;48.584;9.186;2024-01-10T02:52:36;-6.40;91.40
27567;DHT22;15006;48.584;9.186;2024-01-10T02:55:03;-6.30;91.40
27567;DHT22;15006;48.584;9.186;2024-01-10T02:57:29;-6.30;91.40
27567;DHT22;15006;48.584;9.186;2024-01-10T02:59:55;-6.30;91.40
27567;DHT22;15006;48.584;9.186;2024-01-10T03:02:21;-6.30;91.30
27567;DHT22;15006;48.584;9.186;2024-01-10T03:04:49;-6.30;91.20
27567;DHT22;15006;48.584;9.186;2024-01-10T03:07:15;-6.30;91.20
27567;DHT22;15006;48.584;9.186;2024-01-10T03:09:41;-6.30;91.20
27567;DHT22;15006;48.584;9.186;2024-01-10T03:12:09;-6.30;91.20
27567;DHT22;15006;48.584;9.186;2024-01-10T03:14:36;-6.30;91.10
27567;DHT22;15006;48.584;9.186;2024-01-10T03:17:02;-6.30;91.10
27567;DHT22;15006;48.584;9.186;2024-01-10T03:19:28;-6.30;91.10
27567;DHT22;15006;48.584;9.186;2024-01-10T03:21:54;-6.40;91.00
27567;DHT22;15006;48.584;9.186;2024-01-10T03:24:20;-6.30;91.00
27567;DHT22;15006;48.584;9.186;2024-01-10T03:26:49;-6.40;90.90
27567;DHT22;15006;48.584;9.186;2024-01-10T03:29:15;-6.40;90.80
27567;DHT22;15006;48.584;9.186;2024-01-10T03:31:41;-6.40;90.80
27567;DHT22;15006;48.584;9.186;2024-01-10T03:34:07;-6.40;90.90
27567;DHT22;15006;48.584;9.186;2024-01-10T03:36:33;-6.50;90.80
27567;DHT22;15006;48.584;9.186;2024-01-10T03:38:59;-6.50;90.90
27567;DHT22;15006;48.584;9.186;2024-01-10T03:41:26;-6.50;91.00
27567;DHT22;15006;48.584;9.186;2024-01-10T03:43:52;-6.50;91.00
27567;DHT22;15006;48.584;9.186;2024-01-10T03:46:20;-6.50;91.10
27567;DHT22;15006;48.584;9.186;2024-01-10T03:48:45;-6.50;91.20
27567;DHT22;15006;48.584;9.186;2024-01-10T03:51:16;-6.50;91.20
27567;DHT22;15006;48.584;9.186;2024-01-10T03:53:42;-6.50;91.20
27567;DHT22;15006;48.584;9.186;2024-01-10T03:56:09;-6.50;91.30
27567;DHT22;15006;48.584;9.186;2024-01-10T03:58:35;-6.50;91.30
27567;DHT22;15006;48.584;9.186;2024-01-10T04:01:08;-6.50;91.30
27567;DHT22;15006;48.584;9.186;2024-01-10T04:03:35;-6.50;91.00
27567;DHT22;15006;48.584;9.186;2024-01-10T04:06:01;-6.50;91.20
27567;DHT22;15006;48.584;9.186;2024-01-10T04:08:28;-6.50;91.20
27567;DHT22;15006;48.584;9.186;2024-01-10T04:10:54;-6.40;91.20
27567;DHT22;15006;48.584;9.186;2024-01-10T04:13:21;-6.40;91.20
27567;DHT22;15006;48.584;9.186;2024-01-10T04:15:46;-6.40;91.00
27567;DHT22;15006;48.584;9.186;2024-01-10T04:18:12;-6.40;90.90
27567;DHT22;15006;48.584;9.186;2024-01-10T04:20:38;-6.40;90.90
27567;DHT22;15006;48.584;9.186;2024-01-10T04:23:04;-6.40;91.00
27567;DHT22;15006;48.584;9.186;2024-01-10T04:25:30;-6.40;91.00
27567;DHT22;15006;48.584;9.186;2024-01-10T04:27:56;-6.40;91.00
27567;DHT22;15006;48.584;9.186;2024-01-10T04:30:23;-6.40;91.00
27567;DHT22;15006;48.584;9.186;2024-01-10T04:32:49;-6.40;90.90
27567;DHT22;15006;48.584;9.186;2024-01-10T04:35:15;-6.40;90.80
27567;DHT22;15006;48.584;9.186;2024-01-10T04:37:41;-6.40;90.80
27567;DHT22;15006;48.584;9.186;2024-01-10T04:40:07;-6.40;90.80
27567;DHT22;15006;48.584;9.186;2024-01-10T04:42:33;-6.40;90.80
27567;DHT22;15006;48.584;9.186;2024-01-10T04:44:59;-6.40;90.70
27567;DHT22;15006;48.584;9.186;2024-01-10T04:47:25;-6.40;90.60
27567;DHT22;15006;48.584;9.186;2024-01-10T04:49:51;-6.40;90.60
27567;DHT22;15006;48.584;9.186;2024-01-10T04:52:18;-6.40;90.60
27567;DHT22;15006;48.584;9.186;2024-01-10T04:54:44;-6.40;90.60
27567;DHT22;15006;48.584;9.186;2024-01-10T04:57:09;-6.40;90.60
27567;DHT22;15006;48.584;9.186;2024-01-10T04:59:35;-6.40;90.60
27567;DHT22;15006;48.584;9.186;2024-01-10T05:02:01;-6.40;90.60
27567;DHT22;15006;48.584;9.186;2024-01-10T05:04:28;-6.40;90.60
27567;DHT22;15006;48.584;9.186;2024-01-10T05:06:53;-6.40;90.60
27567;DHT22;15006;48.584;9.186;2024-01-10T05:09:19;-6.40;90.60
27567;DHT22;15006;48.584;9.186;2024-01-10T05:11:45;-6.40;90.70
27567;DHT22;15006;48.584;9.186;2024-01-10T05:14:17;-6.40;90.60
27567;DHT22;15006;48.584;9.186;2024-01-10T05:16:46;-6.40;90.60
27567;DHT22;15006;48.584;9.186;2024-01-10T05:19:15;-6.40;90.40
27567;DHT22;15006;48.584;9.186;2024-01-10T05:21:41;-6.40;90.30
27567;DHT22;15006;48.584;9.186;2024-01-10T05:24:07;-6.40;90.20
27567;DHT22;15006;48.584;9.186;2024-01-10T05:26:33;-6.50;90.20
27567;DHT22;15006;48.584;9.186;2024-01-10T05:28:59;-6.50;90.10
27567;DHT22;15006;48.584;9.186;2024-01-10T05:31:25;-6.50;90.10
27567;DHT22;15006;48.584;9.186;2024-01-10T05:33:51;-6.60;90.00
27567;DHT22;15006;48.584;9.186;2024-01-10T05:36:21;-6.60;89.90
27567;DHT22;15006;48.584;9.186;2024-01-10T05:38:48;-6.60;89.30
27567;DHT22;15006;48.584;9.186;2024-01-10T05:41:14;-6.70;89.30
27567;DHT22;15006;48.584;9.186;2024-01-10T05:43:41;-6.80;89.10
27567;DHT22;15006;48.584;9.186;2024-01-10T05:46:07;-6.80;88.90
27567;DHT22;15006;48.584;9.186;2024-01-10T05:48:32;-6.90;88.80
27567;DHT22;15006;48.584;9.186;2024-01-10T05:50:59;-7.00;88.70
27567;DHT22;15006;48.584;9.186;2024-01-10T05:53:25;-7.00;88.90
27567;DHT22;15006;48.584;9.186;2024-01-10T05:55:51;-7.00;89.00
27567;DHT22;15006;48.584;9.186;2024-01-10T05:58:17;-7.10;88.90
27567;DHT22;15006;48.584;9.186;2024-01-10T06:00:43;-7.20;89.00
27567;DHT22;15006;48.584;9.186;2024-01-10T06:03:09;-7.20;89.10
27567;DHT22;15006;48.584;9.186;2024-01-10T06:05:35;-7.30;89.20
27567;DHT22;15006;48.584;9.186;2024-01-10T06:08:01;-7.30;89.20
27567;DHT22;15006;48.584;9.186;2024-01-10T06:10:29;-7.40;89.20
27567;DHT22;15006;48.584;9.186;2024-01-10T06:12:55;-7.40;89.00
27567;DHT22;15006;48.584;9.186;2024-01-10T06:15:22;-7.50;88.80
27567;DHT22;15006;48.584;9.186;2024-01-10T06:17:48;-7.50;88.80
27567;DHT22;15006;48.584;9.186;2024-01-10T06:20:15;-7.60;88.80
27567;DHT22;15006;48.584;9.186;2024-01-10T06:22:41;-7.70;88.80
27567;DHT22;15006;48.584;9.186;2024-01-10T06:25:07;-7.70;88.90
27567;DHT22;15006;48.584;9.186;2024-01-10T06:27:34;-7.80;89.00
27567;DHT22;15006;48.584;9.186;2024-01-10T06:30:00;-7.80;89.20
27567;DHT22;15006;48.584;9.186;2024-01-10T06:32:26;-7.90;89.30
27567;DHT22;15006;48.584;9.186;2024-01-10T06:34:53;-7.90;89.20
27567;DHT22;15006;48.584;9.186;2024-01-10T06:37:18;-7.90;89.10
27567;DHT22;15006;48.584;9.186;2024-01-10T06:39:44;-8.00;88.80
27567;DHT22;15006;48.584;9.186;2024-01-10T06:42:10;-8.00;88.70
27567;DHT22;15006;48.584;9.186;2024-01-10T06:44:37;-8.10;88.80
27567;DHT22;15006;48.584;9.186;2024-01-10T06:47:04;-8.10;89.00
27567;DHT22;15006;48.584;9.186;2024-01-10T06:49:30;-8.20;89.00
27567;DHT22;15006;48.584;9.186;2024-01-10T06:51:56;-8.20;89.10
27567;DHT22;15006;48.584;9.186;2024-01-10T06:54:22;-8.30;88.90
27567;DHT22;15006;48.584;9.186;2024-01-10T06:56:48;-8.30;89.00
27567;DHT22;15006;48.584;9.186;2024-01-10T06:59:15;-8.40;89.20
27567;DHT22;15006;48.584;9.186;2024-01-10T07:01:41;-8.40;89.60
27567;DHT22;15006;48.584;9.186;2024-01-10T07:04:07;-8.40;90.00
27567;DHT22;15006;48.584;9.186;2024-01-10T07:06:33;-8.50;90.00
27567;DHT22;15006;48.584;9.186;2024-01-10T07:08:59;-8.50;90.10
27567;DHT22;15006;48.584;9.186;2024-01-10T07:11:25;-8.50;90.30
27567;DHT22;15006;48.584;9.186;2024-01-10T07:13:53;-8.50;90.50
27567;DHT22;15006;48.584;9.186;2024-01-10T07:16:19;-8.50;90.70
27567;DHT22;15006;48.584;9.186;2024-01-10T07:18:45;-8.50;90.70
27567;DHT22;15006;48.584;9.186;2024-01-10T07:21:13;-8.40;90.80
27567;DHT22;15006;48.584;9.186;2024-01-10T07:23:39;-8.50;90.90
27567;DHT22;15006;48.584;9.186;2024-01-10T07:26:06;-8.40;91.00
27567;DHT22;15006;48.584;9.186;2024-01-10T07:28:32;-8.40;91.10
27567;DHT22;15006;48.584;9.186;2024-01-10T07:30:59;-8.30;91.10
27567;DHT22;15006;48.584;9.186;2024-01-10T07:33:28;-8.30;91.20
27567;DHT22;15006;48.584;9.186;2024-01-10T07:35:57;-8.30;91.30
27567;DHT22;15006;48.584;9.186;2024-01-10T07:38:23;-8.30;91.40
27567;DHT22;15006;48.584;9.186;2024-01-10T07:40:49;-8.20;91.40
27567;DHT22;15006;48.584;9.186;2024-01-10T07:43:15;-8.20;91.40
27567;DHT22;15006;48.584;9.186;2024-01-10T07:45:41;-8.10;91.50
27567;DHT22;15006;48.584;9.186;2024-01-10T07:48:07;-8.10;91.50
27567;DHT22;15006;48.584;9.186;2024-01-10T07:50:33;-8.10;91.50
27567;DHT22;15006;48.584;9.186;2024-01-10T07:52:59;-8.00;91.60
27567;DHT22;15006;48.584;9.186;2024-01-10T07:55:27;-8.00;91.60
27567;DHT22;15006;48.584;9.186;2024-01-10T07:57:55;-7.90;91.70
27567;DHT22;15006;48.584;9.186;2024-01-10T08:00:21;-7.80;91.80
27567;DHT22;15006;48.584;9.186;2024-01-10T08:02:48;-7.80;91.90
27567;DHT22;15006;48.584;9.186;2024-01-10T08:05:15;-7.70;92.00
27567;DHT22;15006;48.584;9.186;2024-01-10T08:07:41;-7.70;92.10
27567;DHT22;15006;48.584;9.186;2024-01-10T08:10:08;-7.60;92.00
27567;DHT22;15006;48.584;9.186;2024-01-10T08:12:36;-7.50;92.30
27567;DHT22;15006;48.584;9.186;2024-01-10T08:15:04;-7.40;91.90
27567;DHT22;15006;48.584;9.186;2024-01-10T08:17:30;-7.40;91.80
27567;DHT22;15006;48.584;9.186;2024-01-10T08:19:56;-7.30;91.80
27567;DHT22;15006;48.584;9.186;2024-01-10T08:22:22;-7.20;91.80
27567;DHT22;15006;48.584;9.186;2024-01-10T08:24:48;-7.20;91.90
27567;DHT22;15006;48.584;9.186;2024-01-10T08:27:15;-7.10;91.90
27567;DHT22;15006;48.584;9.186;2024-01-10T08:29:42;-7.10;91.80
27567;DHT22;15006;48.584;9.186;2024-01-10T08:32:10;-7.00;91.80
27567;DHT22;15006;48.584;9.186;2024-01-10T08:34:36;-6.90;91.90
27567;DHT22;15006;48.584;9.186;2024-01-10T08:37:02;-6.90;91.90
27567;DHT22;15006;48.584;9.186;2024-01-10T08:39:29;-6.80;91.90
27567;DHT22;15006;48.584;9.186;2024-01-10T08:41:57;-6.70;91.90
27567;DHT22;15006;48.584;9.186;2024-01-10T08:44:23;-6.60;91.90
27567;DHT22;15006;48.584;9.186;2024-01-10T08:46:49;-6.60;91.90
27567;DHT22;15006;48.584;9.186;2024-01-10T08:49:17;-6.50;91.80
27567;DHT22;15006;48.584;9.186;2024-01-10T08:51:43;-6.50;91.70
27567;DHT22;15006;48.584;9.186;2024-01-10T08:54:10;-6.40;91.60
27567;DHT22;15006;48.584;9.186;2024-01-10T08:56:38;-6.40;91.50
27567;DHT22;15006;48.584;9.186;2024-01-10T08:59:04;-6.30;91.60
27567;DHT22;15006;48.584;9.186;2024-01-10T09:01:30;-6.20;91.70
27567;DHT22;15006;48.584;9.186;2024-01-10T09:03:56;-6.20;91.90
27567;DHT22;15006;48.584;9.186;2024-01-10T09:06:22;-6.10;92.10
27567;DHT22;15006;48.584;9.186;2024-01-10T09:08:48;-5.90;92.00
27567;DHT22;15006;48.584;9.186;2024-01-10T09:11:14;-5.80;92.00
27567;DHT22;15006;48.584;9.186;2024-01-10T09:13:40;-5.80;91.70
27567;DHT22;15006;48.584;9.186;2024-01-10T09:16:06;-5.70;91.60
27567;DHT22;15006;48.584;9.186;2024-01-10T09:18:32;-5.60;91.40
27567;DHT22;15006;48.584;9.186;2024-01-10T09:20:58;-5.60;91.30
27567;DHT22;15006;48.584;9.186;2024-01-10T09:23:24;-5.50;91.30
27567;DHT22;15006;48.584;9.186;2024-01-10T09:25:50;-5.50;91.40
27567;DHT22;15006;48.584;9.186;2024-01-10T09:28:16;-5.40;91.20
27567;DHT22;15006;48.584;9.186;2024-01-10T09:30:42;-5.40;91.20
27567;DHT22;15006;48.584;9.186;2024-01-10T09:33:08;-5.30;91.20
27567;DHT22;15006;48.584;9.186;2024-01-10T09:35:33;-5.30;91.00
27567;DHT22;15006;48.584;9.186;2024-01-10T09:37:59;-5.20;90.80
27567;DHT22;15006;48.584;9.186;2024-01-10T09:40:26;-5.20;90.50
27567;DHT22;15006;48.584;9.186;2024-01-10T09:42:55;-5.20;90.60
27567;DHT22;15006;48.584;9.186;2024-01-10T09:45:21;-5.20;90.20
27567;DHT22;15006;48.584;9.186;2024-01-10T09:47:55;-5.20;90.20
27567;DHT22;15006;48.584;9.186;2024-01-10T09:50:22;-5.20;90.20
27567;DHT22;15006;48.584;9.186;2024-01-10T09:52:51;-5.20;90.40
27567;DHT22;15006;48.584;9.186;2024-01-10T09:55:22;-5.20;90.40
27567;DHT22;15006;48.584;9.186;2024-01-10T09:57:49;-5.20;90.40
27567;DHT22;15006;48.584;9.186;2024-01-10T10:00:16;-5.20;90.20
27567;DHT22;15006;48.584;9.186;2024-01-10T10:02:42;-5.10;90.40
27567;DHT22;15006;48.584;9.186;2024-01-10T10:05:13;-5.10;90.40
27567;DHT22;15006;48.584;9.186;2024-01-10T10:07:49;-5.00;90.50
27567;DHT22;15006;48.584;9.186;2024-01-10T10:10:17;-4.90;90.90
27567;DHT22;15006;48.584;9.186;2024-01-10T10:12:51;-4.80;91.30
27567;DHT22;15006;48.584;9.186;2024-01-10T10:15:22;-4.70;90.90
27567;DHT22;15006;48.584;9.186;2024-01-10T10:17:49;-4.70;91.50
27567;DHT22;15006;48.584;9.186;2024-01-10T10:20:27;-4.50;88.70
27567;DHT22;15006;48.584;9.186;2024-01-10T10:23:03;-4.40;91.00
27567;DHT22;15006;48.584;9.186;2024-01-10T10:25:31;-4.30;91.30
27567;DHT22;15006;48.584;9.186;2024-01-10T10:28:02;-4.20;91.10
27567;DHT22;15006;48.584;9.186;2024-01-10T10:30:30;-4.10;90.90
27567;DHT22;15006;48.584;9.186;2024-01-10T10:32:57;-4.00;90.90
27567;DHT22;15006;48.584;9.186;2024-01-10T10:35:23;-4.00;90.90
27567;DHT22;15006;48.584;9.186;2024-01-10T10:37:50;-3.90;90.50
27567;DHT22;15006;48.584;9.186;2024-01-10T10:40:17;-3.80;90.60
27567;DHT22;15006;48.584;9.186;2024-01-10T10:42:46;-3.80;90.30
27567;DHT22;15006;48.584;9.186;2024-01-10T10:45:21;-3.70;90.70
27567;DHT22;15006;48.584;9.186;2024-01-10T10:48:00;-3.60;90.30
27567;DHT22;15006;48.584;9.186;2024-01-10T10:50:34;-3.60;90.20
27567;DHT22;15006;48.584;9.186;2024-01-10T10:53:05;-3.50;89.80
27567;DHT22;15006;48.584;9.186;2024-01-10T10:55:32;-3.40;90.00
27567;DHT22;15006;48.584;9.186;2024-01-10T10:58:01;-3.40;89.80
27567;DHT22;15006;48.584;9.186;2024-01-10T11:00:31;-3.30;89.70
27567;DHT22;15006;48.584;9.186;2024-01-10T11:02:57;-3.20;89.00
27567;DHT22;15006;48.584;9.186;2024-01-10T11:05:24;-3.10;90.80
27567;DHT22;15006;48.584;9.186;2024-01-10T11:07:51;-3.00;91.30
27567;DHT22;15006;48.584;9.186;2024-01-10T11:10:31;-2.70;92.10
27567;DHT22;15006;48.584;9.186;2024-01-10T11:13:27;-2.30;92.80
27567;DHT22;15006;48.584;9.186;2024-01-10T11:16:35;-1.80;94.10
27567;DHT22;15006;48.584;9.186;2024-01-10T11:22:10;-0.20;99.90
27567;DHT22;15006;48.584;9.186;2024-01-10T11:24:45;0.60;99.90
27567;DHT22;15006;48.584;9.186;2024-01-10T11:27:12;1.50;99.90
27567;DHT22;15006;48.584;9.186;2024-01-10T11:29:40;2.30;99.90
27567;DHT22;15006;48.584;9.186;2024-01-10T11:32:07;3.10;99.90
27567;DHT22;15006;48.584;9.186;2024-01-10T11:34:38;3.80;99.90
27567;DHT22;15006;48.584;9.186;2024-01-10T11:37:21;4.50;99.90
27567;DHT22;15006;48.584;9.186;2024-01-10T11:39:47;5.20;99.90
27567;DHT22;15006;48.584;9.186;2024-01-10T11:42:40;5.70;99.90
27567;DHT22;15006;48.584;9.186;2024-01-10T11:45:07;6.20;96.50
27567;DHT22;15006;48.584;9.186;2024-01-10T11:47:34;6.80;99.90
27567;DHT22;15006;48.584;9.186;2024-01-10T11:50:02;7.30;99.90
27567;DHT22;15006;48.584;9.186;2024-01-10T11:52:32;7.70;95.80
27567;DHT22;15006;48.584;9.186;2024-01-10T11:55:02;8.10;92.10
27567;DHT22;15006;48.584;9.186;2024-01-10T11:57:30;8.40;92.80
27567;DHT22;15006;48.584;9.186;2024-01-10T11:59:58;8.70;90.90
27567;DHT22;15006;48.584;9.186;2024-01-10T12:02:31;8.90;89.80
27567;DHT22;15006;48.584;9.186;2024-01-10T12:04:57;9.00;87.30
27567;DHT22;15006;48.584;9.186;2024-01-10T12:07:23;9.20;89.00
27567;DHT22;15006;48.584;9.186;2024-01-10T12:09:51;9.40;89.50
27567;DHT22;15006;48.584;9.186;2024-01-10T12:12:17;9.60;87.30
27567;DHT22;15006;48.584;9.186;2024-01-10T12:14:43;9.80;85.80
27567;DHT22;15006;48.584;9.186;2024-01-10T12:17:09;9.90;87.50
27567;DHT22;15006;48.584;9.186;2024-01-10T12:19:36;10.20;87.70
27567;DHT22;15006;48.584;9.186;2024-01-10T12:22:08;10.40;88.40
27567;DHT22;15006;48.584;9.186;2024-01-10T12:24:52;10.60;81.70
27567;DHT22;15006;48.584;9.186;2024-01-10T12:27:19;10.80;83.00
27567;DHT22;15006;48.584;9.186;2024-01-10T12:29:52;10.90;81.80
27567;DHT22;15006;48.584;9.186;2024-01-10T12:32:19;11.00;77.70
27567;DHT22;15006;48.584;9.186;2024-01-10T12:34:47;11.10;82.30
27567;DHT22;15006;48.584;9.186;2024-01-10T12:37:14;11.30;82.70
27567;DHT22;15006;48.584;9.186;2024-01-10T12:39:40;11.40;82.70
27567;DHT22;15006;48.584;9.186;2024-01-10T12:42:06;11.60;81.80
27567;DHT22;15006;48.584;9.186;2024-01-10T12:44:32;11.70;80.40
27567;DHT22;15006;48.584;9.186;2024-01-10T12:46:59;11.80;78.80
27567;DHT22;15006;48.584;9.186;2024-01-10T12:49:25;11.90;78.30
27567;DHT22;15006;48.584;9.186;2024-01-10T12:51:52;12.00;77.90
27567;DHT22;15006;48.584;9.186;2024-01-10T12:54:18;12.10;78.70
27567;DHT22;15006;48.584;9.186;2024-01-10T12:56:44;12.30;79.30
27567;DHT22;15006;48.584;9.186;2024-01-10T12:59:11;12.40;75.90
27567;DHT22;15006;48.584;9.186;2024-01-10T13:01:38;12.40;71.60
27567;DHT22;15006;48.584;9.186;2024-01-10T13:04:04;12.40;72.00
27567;DHT22;15006;48.584;9.186;2024-01-10T13:06:30;12.40;71.00
27567;DHT22;15006;48.584;9.186;2024-01-10T13:08:56;12.30;72.80
27567;DHT22;15006;48.584;9.186;2024-01-10T13:11:22;12.30;71.60
27567;DHT22;15006;48.584;9.186;2024-01-10T13:13:48;12.20;70.70
27567;DHT22;15006;48.584;9.186;2024-01-10T13:16:15;12.10;72.10
27567;DHT22;15006;48.584;9.186;2024-01-10T13:18:42;12.20;73.80
27567;DHT22;15006;48.584;9.186;2024-01-10T13:21:08;12.20;73.90
27567;DHT22;15006;48.584;9.186;2024-01-10T13:23:36;12.30;74.80
27567;DHT22;15006;48.584;9.186;2024-01-10T13:26:02;12.30;75.10
27567;DHT22;15006;48.584;9.186;2024-01-10T13:28:29;12.40;74.60
27567;DHT22;15006;48.584;9.186;2024-01-10T13:30:55;12.50;74.30
27567;DHT22;15006;48.584;9.186;2024-01-10T13:33:22;12.60;73.80
27567;DHT22;15006;48.584;9.186;2024-01-10T13:36:06;12.70;73.40
27567;DHT22;15006;48.584;9.186;2024-01-10T13:38:32;12.70;74.60
27567;DHT22;15006;48.584;9.186;2024-01-10T13:40:58;12.80;73.00
27567;DHT22;15006;48.584;9.186;2024-01-10T13:43:24;12.80;72.20
27567;DHT22;15006;48.584;9.186;2024-01-10T13:45:50;12.90;72.20
27567;DHT22;15006;48.584;9.186;2024-01-10T13:48:17;12.90;71.40
27567;DHT22;15006;48.584;9.186;2024-01-10T13:50:43;12.90;72.00
27567;DHT22;15006;48.584;9.186;2024-01-10T13:53:11;12.90;72.10
27567;DHT22;15006;48.584;9.186;2024-01-10T13:55:37;12.90;71.90
27567;DHT22;15006;48.584;9.186;2024-01-10T13:58:03;13.00;70.70
27567;DHT22;15006;48.584;9.186;2024-01-10T14:00:29;13.00;69.80
27567;DHT22;15006;48.584;9.186;2024-01-10T14:02:55;13.00;69.60
27567;DHT22;15006;48.584;9.186;2024-01-10T14:05:26;13.00;69.20
27567;DHT22;15006;48.584;9.186;2024-01-10T14:07:53;12.90;68.60
27567;DHT22;15006;48.584;9.186;2024-01-10T14:10:19;12.90;69.10
27567;DHT22;15006;48.584;9.186;2024-01-10T14:12:45;12.90;69.00
27567;DHT22;15006;48.584;9.186;2024-01-10T14:15:11;12.80;68.70
27567;DHT22;15006;48.584;9.186;2024-01-10T14:17:38;12.80;68.50
27567;DHT22;15006;48.584;9.186;2024-01-10T14:20:05;12.70;68.10
27567;DHT22;15006;48.584;9.186;2024-01-10T14:22:37;12.70;67.10
27567;DHT22;15006;48.584;9.186;2024-01-10T14:25:03;12.60;64.60
27567;DHT22;15006;48.584;9.186;2024-01-10T14:27:31;12.50;65.80
27567;DHT22;15006;48.584;9.186;2024-01-10T14:29:57;12.30;65.60
27567;DHT22;15006;48.584;9.186;2024-01-10T14:32:24;12.20;66.40
27567;DHT22;15006;48.584;9.186;2024-01-10T14:34:51;12.00;66.30
27567;DHT22;15006;48.584;9.186;2024-01-10T14:37:17;11.90;65.80
27567;DHT22;15006;48.584;9.186;2024-01-10T14:39:43;11.70;65.10
27567;DHT22;15006;48.584;9.186;2024-01-10T14:42:09;11.50;64.80
27567;DHT22;15006;48.584;9.186;2024-01-10T14:44:35;11.30;65.50
27567;DHT22;15006;48.584;9.186;2024-01-10T14:47:16;11.00;65.50
27567;DHT22;15006;48.584;9.186;2024-01-10T14:49:42;10.80;65.60
27567;DHT22;15006;48.584;9.186;2024-01-10T14:52:08;10.60;65.30
27567;DHT22;15006;48.584;9.186;2024-01-10T14:54:35;10.30;63.80
27567;DHT22;15006;48.584;9.186;2024-01-10T14:57:00;9.80;62.60
27567;DHT22;15006;48.584;9.186;2024-01-10T14:59:26;9.40;62.00
27567;DHT22;15006;48.584;9.186;2024-01-10T15:08:27;7.50;64.90
27567;DHT22;15006;48.584;9.186;2024-01-10T15:10:53;7.00;64.80
27567;DHT22;15006;48.584;9.186;2024-01-10T15:13:19;6.50;64.50
27567;DHT22;15006;48.584;9.186;2024-01-10T15:15:45;6.00;64.70
27567;DHT22;15006;48.584;9.186;2024-01-10T15:18:11;5.50;64.80
27567;DHT22;15006;48.584;9.186;2024-01-10T15:20:37;5.00;65.40
27567;DHT22;15006;48.584;9.186;2024-01-10T15:23:03;4.50;66.00
27567;DHT22;15006;48.584;9.186;2024-01-10T15:25:29;4.00;66.70
27567;DHT22;15006;48.584;9.186;2024-01-10T15:27:55;3.50;67.20
27567;DHT22;15006;48.584;9.186;2024-01-10T15:30:21;3.10;67.90
27567;DHT22;15006;48.584;9.186;2024-01-10T15:32:49;2.70;68.50
27567;DHT22;15006;48.584;9.186;2024-01-10T15:35:16;2.30;69.40
27567;DHT22;15006;48.584;9.186;2024-01-10T15:37:43;1.90;70.20
27567;DHT22;15006;48.584;9.186;2024-01-10T15:40:11;1.50;70.70
27567;DHT22;15006;48.584;9.186;2024-01-10T15:42:38;1.20;71.40